sensor_id;sensor_type;location;lat;lon;timestamp;P1;durP1;ratioP1;P2;durP2;ratioP2
6727;SDS011;3401;52.504;13.430;2022-11-15T00:02:37;57.37;;;21.40;;
6727;SDS011;3401;52.504;13.430;2022-11-15T00:05:23;51.67;;;21.57;;
6727;SDS011;3401;52.504;13.430;2022-11-15T00:08:10;49.07;;;21.20;;
6727;SDS011;3401;52.504;13.430;2022-11-15T00:10:57;45.53;;;20.90;;
6727;SDS011;3401;52.504;13.430;2022-11-15T00:13:45;44.77;;;21.07;;
6727;SDS011;3401;52.504;13.430;2022-11-15T00:16:32;47.23;;;20.50;;
6727;SDS011;3401;52.504;13.430;2022-11-15T00:19:19;49.50;;;20.80;;
6727;SDS011;3401;52.504;13.430;2022-11-15T00:22:05;46.63;;;21.83;;
6727;SDS011;3401;52.504;13.430;2022-11-15T00:24:52;48.53;;;20.77;;
6727;SDS011;3401;52.504;13.430;2022-11-15T00:27:38;51.10;;;20.87;;
6727;SDS011;3401;52.504;13.430;2022-11-15T00:30:24;42.43;;;19.10;;
6727;SDS011;3401;52.504;13.430;2022-11-15T00:33:13;53.60;;;23.07;;
6727;SDS011;3401;52.504;13.430;2022-11-15T00:35:59;44.03;;;21.03;;
6727;SDS011;3401;52.504;13.430;2022-11-15T00:38:47;54.50;;;21.03;;
6727;SDS011;3401;52.504;13.430;2022-11-15T00:41:33;48.53;;;20.00;;
6727;SDS011;3401;52.504;13.430;2022-11-15T00:44:19;44.80;;;20.43;;
6727;SDS011;3401;52.504;13.430;2022-11-15T00:47:06;50.87;;;20.83;;
6727;SDS011;3401;52.504;13.430;2022-11-15T00:49:53;53.93;;;21.07;;
6727;SDS011;3401;52.504;13.430;2022-11-15T00:52:39;50.73;;;20.97;;
6727;SDS011;3401;52.504;13.430;2022-11-15T00:55:26;50.93;;;21.50;;
6727;SDS011;3401;52.504;13.430;2022-11-15T00:58:12;48.37;;;21.40;;
6727;SDS011;3401;52.504;13.430;2022-11-15T01:01:04;48.93;;;21.77;;
6727;SDS011;3401;52.504;13.430;2022-11-15T01:03:51;39.63;;;18.37;;
6727;SDS011;3401;52.504;13.430;2022-11-15T01:06:46;49.27;;;20.40;;
6727;SDS011;3401;52.504;13.430;2022-11-15T01:09:32;42.33;;;18.67;;
6727;SDS011;3401;52.504;13.430;2022-11-15T01:12:18;46.10;;;21.30;;
6727;SDS011;3401;52.504;13.430;2022-11-15T01:15:05;44.30;;;21.17;;
6727;SDS011;3401;52.504;13.430;2022-11-15T01:17:52;44.27;;;19.93;;
6727;SDS011;3401;52.504;13.430;2022-11-15T01:20:40;45.17;;;21.57;;
6727;SDS011;3401;52.504;13.430;2022-11-15T01:23:28;50.43;;;20.63;;
6727;SDS011;3401;52.504;13.430;2022-11-15T01:26:15;45.63;;;19.57;;
6727;SDS011;3401;52.504;13.430;2022-11-15T01:29:02;49.00;;;20.70;;
6727;SDS011;3401;52.504;13.430;2022-11-15T01:31:48;45.07;;;20.07;;
6727;SDS011;3401;52.504;13.430;2022-11-15T01:34:34;43.30;;;20.00;;
6727;SDS011;3401;52.504;13.430;2022-11-15T01:37:20;42.57;;;20.53;;
6727;SDS011;3401;52.504;13.430;2022-11-15T01:40:09;42.83;;;19.97;;
6727;SDS011;3401;52.504;13.430;2022-11-15T01:42:56;46.37;;;20.87;;
6727;SDS011;3401;52.504;13.430;2022-11-15T01:45:42;47.27;;;20.27;;
6727;SDS011;3401;52.504;13.430;2022-11-15T01:48:30;35.83;;;17.37;;
6727;SDS011;3401;52.504;13.430;2022-11-15T01:51:19;43.73;;;18.70;;
6727;SDS011;3401;52.504;13.430;2022-11-15T01:54:06;46.27;;;19.27;;
6727;SDS011;3401;52.504;13.430;2022-11-15T01:56:58;47.10;;;19.53;;
6727;SDS011;3401;52.504;13.430;2022-11-15T01:59:46;40.97;;;17.00;;
6727;SDS011;3401;52.504;13.430;2022-11-15T02:02:32;44.73;;;19.37;;
6727;SDS011;3401;52.504;13.430;2022-11-15T02:05:20;44.17;;;18.27;;
6727;SDS011;3401;52.504;13.430;2022-11-15T02:08:06;41.00;;;18.97;;
6727;SDS011;3401;52.504;13.430;2022-11-15T02:10:52;48.40;;;20.87;;
6727;SDS011;3401;52.504;13.430;2022-11-15T02:13:40;38.73;;;19.50;;
6727;SDS011;3401;52.504;13.430;2022-11-15T02:16:28;41.57;;;17.33;;
6727;SDS011;3401;52.504;13.430;2022-11-15T02:19:25;43.90;;;19.30;;
6727;SDS011;3401;52.504;13.430;2022-11-15T02:22:22;35.80;;;17.30;;
6727;SDS011;3401;52.504;13.430;2022-11-15T02:25:18;38.03;;;17.90;;
6727;SDS011;3401;52.504;13.430;2022-11-15T02:31:36;37.23;;;18.60;;
6727;SDS011;3401;52.504;13.430;2022-11-15T02:34:28;44.10;;;20.23;;
6727;SDS011;3401;52.504;13.430;2022-11-15T02:37:20;44.53;;;18.77;;
6727;SDS011;3401;52.504;13.430;2022-11-15T02:40:11;43.57;;;19.50;;
6727;SDS011;3401;52.504;13.430;2022-11-15T02:43:03;51.33;;;21.07;;
6727;SDS011;3401;52.504;13.430;2022-11-15T02:46:09;36.63;;;17.60;;
6727;SDS011;3401;52.504;13.430;2022-11-15T02:49:02;40.50;;;19.33;;
6727;SDS011;3401;52.504;13.430;2022-11-15T02:51:49;41.77;;;18.10;;
6727;SDS011;3401;52.504;13.430;2022-11-15T02:54:36;44.00;;;19.17;;
6727;SDS011;3401;52.504;13.430;2022-11-15T02:57:25;40.53;;;19.80;;
6727;SDS011;3401;52.504;13.430;2022-11-15T03:00:27;46.97;;;19.50;;
6727;SDS011;3401;52.504;13.430;2022-11-15T03:03:23;48.17;;;22.30;;
6727;SDS011;3401;52.504;13.430;2022-11-15T03:06:22;44.30;;;20.97;;
6727;SDS011;3401;52.504;13.430;2022-11-15T03:09:17;41.43;;;20.23;;
6727;SDS011;3401;52.504;13.430;2022-11-15T03:12:12;44.00;;;19.30;;
6727;SDS011;3401;52.504;13.430;2022-11-15T03:15:04;47.10;;;19.67;;
6727;SDS011;3401;52.504;13.430;2022-11-15T03:17:52;46.80;;;20.30;;
6727;SDS011;3401;52.504;13.430;2022-11-15T03:20:41;48.87;;;20.23;;
6727;SDS011;3401;52.504;13.430;2022-11-15T03:23:36;50.53;;;20.00;;
6727;SDS011;3401;52.504;13.430;2022-11-15T03:26:25;49.00;;;20.47;;
6727;SDS011;3401;52.504;13.430;2022-11-15T03:29:12;48.70;;;21.30;;
6727;SDS011;3401;52.504;13.430;2022-11-15T03:32:01;49.17;;;20.73;;
6727;SDS011;3401;52.504;13.430;2022-11-15T03:34:51;51.33;;;22.13;;
6727;SDS011;3401;52.504;13.430;2022-11-15T03:37:41;52.60;;;20.50;;
6727;SDS011;3401;52.504;13.430;2022-11-15T03:40:33;54.20;;;21.80;;
6727;SDS011;3401;52.504;13.430;2022-11-15T03:43:24;47.10;;;20.40;;
6727;SDS011;3401;52.504;13.430;2022-11-15T03:46:19;55.75;;;20.33;;
6727;SDS011;3401;52.504;13.430;2022-11-15T03:49:09;47.83;;;21.00;;
6727;SDS011;3401;52.504;13.430;2022-11-15T03:51:58;55.83;;;23.10;;
6727;SDS011;3401;52.504;13.430;2022-11-15T03:54:53;62.97;;;23.33;;
6727;SDS011;3401;52.504;13.430;2022-11-15T03:57:41;52.95;;;21.55;;
6727;SDS011;3401;52.504;13.430;2022-11-15T04:00:31;48.22;;;19.75;;
6727;SDS011;3401;52.504;13.430;2022-11-15T04:03:17;53.03;;;21.63;;
6727;SDS011;3401;52.504;13.430;2022-11-15T04:06:03;58.37;;;20.70;;
6727;SDS011;3401;52.504;13.430;2022-11-15T04:08:50;66.00;;;22.90;;
6727;SDS011;3401;52.504;13.430;2022-11-15T04:11:36;55.63;;;23.02;;
6727;SDS011;3401;52.504;13.430;2022-11-15T04:14:24;55.97;;;21.00;;
6727;SDS011;3401;52.504;13.430;2022-11-15T04:17:10;54.90;;;21.48;;
6727;SDS011;3401;52.504;13.430;2022-11-15T04:19:57;61.70;;;23.13;;
6727;SDS011;3401;52.504;13.430;2022-11-15T04:23:02;58.20;;;22.40;;
6727;SDS011;3401;52.504;13.430;2022-11-15T04:26:08;51.80;;;21.45;;
6727;SDS011;3401;52.504;13.430;2022-11-15T04:28:56;61.80;;;22.45;;
6727;SDS011;3401;52.504;13.430;2022-11-15T04:32:01;53.80;;;22.60;;
6727;SDS011;3401;52.504;13.430;2022-11-15T04:34:48;61.17;;;20.98;;
6727;SDS011;3401;52.504;13.430;2022-11-15T04:37:34;65.10;;;22.77;;
6727;SDS011;3401;52.504;13.430;2022-11-15T04:40:20;51.20;;;20.63;;
6727;SDS011;3401;52.504;13.430;2022-11-15T04:43:06;61.43;;;23.87;;
6727;SDS011;3401;52.504;13.430;2022-11-15T04:45:53;58.73;;;23.70;;
6727;SDS011;3401;52.504;13.430;2022-11-15T04:48:40;56.87;;;21.93;;
6727;SDS011;3401;52.504;13.430;2022-11-15T04:51:27;64.40;;;23.70;;
6727;SDS011;3401;52.504;13.430;2022-11-15T04:54:13;65.22;;;22.13;;
6727;SDS011;3401;52.504;13.430;2022-11-15T04:57:00;45.70;;;20.98;;
6727;SDS011;3401;52.504;13.430;2022-11-15T04:59:46;56.35;;;23.02;;
6727;SDS011;3401;52.504;13.430;2022-11-15T05:02:32;70.00;;;25.67;;
6727;SDS011;3401;52.504;13.430;2022-11-15T05:05:34;63.90;;;24.17;;
6727;SDS011;3401;52.504;13.430;2022-11-15T05:08:21;56.00;;;19.87;;
6727;SDS011;3401;52.504;13.430;2022-11-15T05:11:07;66.83;;;23.97;;
6727;SDS011;3401;52.504;13.430;2022-11-15T05:13:53;60.80;;;24.17;;
6727;SDS011;3401;52.504;13.430;2022-11-15T05:16:40;70.72;;;23.40;;
6727;SDS011;3401;52.504;13.430;2022-11-15T05:19:27;69.57;;;24.57;;
6727;SDS011;3401;52.504;13.430;2022-11-15T05:22:14;61.78;;;25.25;;
6727;SDS011;3401;52.504;13.430;2022-11-15T05:25:01;68.53;;;22.75;;
6727;SDS011;3401;52.504;13.430;2022-11-15T05:27:47;65.95;;;23.55;;
6727;SDS011;3401;52.504;13.430;2022-11-15T05:30:33;71.88;;;23.83;;
6727;SDS011;3401;52.504;13.430;2022-11-15T05:33:20;70.33;;;25.00;;
6727;SDS011;3401;52.504;13.430;2022-11-15T05:36:09;70.68;;;24.23;;
6727;SDS011;3401;52.504;13.430;2022-11-15T05:39:00;53.28;;;20.52;;
6727;SDS011;3401;52.504;13.430;2022-11-15T05:41:47;60.13;;;22.50;;
6727;SDS011;3401;52.504;13.430;2022-11-15T05:44:36;53.43;;;22.40;;
6727;SDS011;3401;52.504;13.430;2022-11-15T05:47:23;63.53;;;24.83;;
6727;SDS011;3401;52.504;13.430;2022-11-15T05:50:12;64.30;;;25.38;;
6727;SDS011;3401;52.504;13.430;2022-11-15T05:52:58;55.63;;;23.50;;
6727;SDS011;3401;52.504;13.430;2022-11-15T05:55:50;64.65;;;23.25;;
6727;SDS011;3401;52.504;13.430;2022-11-15T05:58:37;70.67;;;25.83;;
6727;SDS011;3401;52.504;13.430;2022-11-15T06:01:24;66.93;;;22.10;;
6727;SDS011;3401;52.504;13.430;2022-11-15T06:04:11;63.20;;;24.50;;
6727;SDS011;3401;52.504;13.430;2022-11-15T06:06:58;66.40;;;24.97;;
6727;SDS011;3401;52.504;13.430;2022-11-15T06:09:44;76.90;;;27.20;;
6727;SDS011;3401;52.504;13.430;2022-11-15T06:12:32;61.20;;;24.00;;
6727;SDS011;3401;52.504;13.430;2022-11-15T06:15:18;71.13;;;23.15;;
6727;SDS011;3401;52.504;13.430;2022-11-15T06:18:04;62.25;;;23.67;;
6727;SDS011;3401;52.504;13.430;2022-11-15T06:20:51;66.20;;;23.58;;
6727;SDS011;3401;52.504;13.430;2022-11-15T06:23:37;65.65;;;23.77;;
6727;SDS011;3401;52.504;13.430;2022-11-15T06:26:25;53.58;;;21.35;;
6727;SDS011;3401;52.504;13.430;2022-11-15T06:29:13;60.43;;;20.73;;
6727;SDS011;3401;52.504;13.430;2022-11-15T06:31:59;58.15;;;23.52;;
6727;SDS011;3401;52.504;13.430;2022-11-15T06:34:45;57.33;;;22.70;;
6727;SDS011;3401;52.504;13.430;2022-11-15T06:37:32;64.55;;;24.30;;
6727;SDS011;3401;52.504;13.430;2022-11-15T06:40:19;62.40;;;24.27;;
6727;SDS011;3401;52.504;13.430;2022-11-15T06:43:06;61.33;;;25.23;;
6727;SDS011;3401;52.504;13.430;2022-11-15T06:45:54;66.05;;;25.35;;
6727;SDS011;3401;52.504;13.430;2022-11-15T06:48:40;62.03;;;24.33;;
6727;SDS011;3401;52.504;13.430;2022-11-15T06:51:27;61.25;;;24.08;;
6727;SDS011;3401;52.504;13.430;2022-11-15T06:54:22;59.77;;;22.83;;
6727;SDS011;3401;52.504;13.430;2022-11-15T06:57:17;63.40;;;24.90;;
6727;SDS011;3401;52.504;13.430;2022-11-15T07:00:04;55.40;;;22.17;;
6727;SDS011;3401;52.504;13.430;2022-11-15T07:02:52;65.83;;;25.33;;
6727;SDS011;3401;52.504;13.430;2022-11-15T07:05:38;73.10;;;25.00;;
6727;SDS011;3401;52.504;13.430;2022-11-15T07:08:26;67.97;;;24.00;;
6727;SDS011;3401;52.504;13.430;2022-11-15T07:11:14;71.13;;;27.43;;
6727;SDS011;3401;52.504;13.430;2022-11-15T07:14:00;64.90;;;24.07;;
6727;SDS011;3401;52.504;13.430;2022-11-15T07:16:47;68.27;;;27.00;;
6727;SDS011;3401;52.504;13.430;2022-11-15T07:19:35;63.17;;;23.67;;
6727;SDS011;3401;52.504;13.430;2022-11-15T07:22:21;69.00;;;25.53;;
6727;SDS011;3401;52.504;13.430;2022-11-15T07:25:08;68.80;;;26.00;;
6727;SDS011;3401;52.504;13.430;2022-11-15T07:27:55;56.30;;;22.73;;
6727;SDS011;3401;52.504;13.430;2022-11-15T07:30:42;73.43;;;25.63;;
6727;SDS011;3401;52.504;13.430;2022-11-15T07:33:29;70.60;;;27.00;;
6727;SDS011;3401;52.504;13.430;2022-11-15T07:36:18;65.40;;;25.50;;
6727;SDS011;3401;52.504;13.430;2022-11-15T07:39:04;61.03;;;24.13;;
6727;SDS011;3401;52.504;13.430;2022-11-15T07:41:50;62.63;;;26.73;;
6727;SDS011;3401;52.504;13.430;2022-11-15T07:44:57;62.33;;;25.37;;
6727;SDS011;3401;52.504;13.430;2022-11-15T07:47:44;52.43;;;22.47;;
6727;SDS011;3401;52.504;13.430;2022-11-15T07:50:31;52.73;;;23.03;;
6727;SDS011;3401;52.504;13.430;2022-11-15T07:53:18;62.47;;;23.40;;
6727;SDS011;3401;52.504;13.430;2022-11-15T07:56:05;72.10;;;25.40;;
6727;SDS011;3401;52.504;13.430;2022-11-15T07:58:52;66.50;;;25.13;;
6727;SDS011;3401;52.504;13.430;2022-11-15T08:01:38;73.60;;;25.30;;
6727;SDS011;3401;52.504;13.430;2022-11-15T08:04:25;69.67;;;25.37;;
6727;SDS011;3401;52.504;13.430;2022-11-15T08:07:11;71.63;;;23.93;;
6727;SDS011;3401;52.504;13.430;2022-11-15T08:09:59;51.13;;;21.07;;
6727;SDS011;3401;52.504;13.430;2022-11-15T08:12:46;59.97;;;23.80;;
6727;SDS011;3401;52.504;13.430;2022-11-15T08:15:32;54.03;;;23.70;;
6727;SDS011;3401;52.504;13.430;2022-11-15T08:18:19;54.60;;;25.50;;
6727;SDS011;3401;52.504;13.430;2022-11-15T08:21:05;59.37;;;22.57;;
6727;SDS011;3401;52.504;13.430;2022-11-15T08:23:52;59.50;;;23.97;;
6727;SDS011;3401;52.504;13.430;2022-11-15T08:26:39;58.80;;;24.47;;
6727;SDS011;3401;52.504;13.430;2022-11-15T08:29:25;62.30;;;24.50;;
6727;SDS011;3401;52.504;13.430;2022-11-15T08:32:12;72.43;;;27.10;;
6727;SDS011;3401;52.504;13.430;2022-11-15T08:34:58;72.13;;;27.17;;
6727;SDS011;3401;52.504;13.430;2022-11-15T08:37:44;61.70;;;26.93;;
6727;SDS011;3401;52.504;13.430;2022-11-15T08:40:31;68.30;;;26.03;;
6727;SDS011;3401;52.504;13.430;2022-11-15T08:43:19;60.37;;;25.20;;
6727;SDS011;3401;52.504;13.430;2022-11-15T08:46:05;73.10;;;26.87;;
6727;SDS011;3401;52.504;13.430;2022-11-15T08:48:51;55.47;;;24.83;;
6727;SDS011;3401;52.504;13.430;2022-11-15T08:51:37;60.23;;;24.80;;
6727;SDS011;3401;52.504;13.430;2022-11-15T08:54:24;64.70;;;24.33;;
6727;SDS011;3401;52.504;13.430;2022-11-15T08:57:10;52.90;;;23.57;;
6727;SDS011;3401;52.504;13.430;2022-11-15T08:59:58;55.07;;;24.17;;
6727;SDS011;3401;52.504;13.430;2022-11-15T09:02:45;50.23;;;22.47;;
6727;SDS011;3401;52.504;13.430;2022-11-15T09:05:32;51.30;;;21.63;;
6727;SDS011;3401;52.504;13.430;2022-11-15T09:08:18;48.47;;;21.17;;
6727;SDS011;3401;52.504;13.430;2022-11-15T09:11:24;44.07;;;20.90;;
6727;SDS011;3401;52.504;13.430;2022-11-15T09:14:11;38.43;;;18.77;;
6727;SDS011;3401;52.504;13.430;2022-11-15T09:16:59;38.20;;;17.93;;
6727;SDS011;3401;52.504;13.430;2022-11-15T09:19:45;43.53;;;19.67;;
6727;SDS011;3401;52.504;13.430;2022-11-15T09:22:32;47.20;;;21.33;;
6727;SDS011;3401;52.504;13.430;2022-11-15T09:25:18;41.37;;;19.23;;
6727;SDS011;3401;52.504;13.430;2022-11-15T09:28:05;35.93;;;17.50;;
6727;SDS011;3401;52.504;13.430;2022-11-15T09:30:55;34.67;;;17.63;;
6727;SDS011;3401;52.504;13.430;2022-11-15T09:33:44;41.10;;;18.30;;
6727;SDS011;3401;52.504;13.430;2022-11-15T09:36:30;34.63;;;17.20;;
6727;SDS011;3401;52.504;13.430;2022-11-15T09:39:17;36.83;;;16.70;;
6727;SDS011;3401;52.504;13.430;2022-11-15T09:42:09;36.87;;;14.97;;
6727;SDS011;3401;52.504;13.430;2022-11-15T09:45:07;32.63;;;15.20;;
6727;SDS011;3401;52.504;13.430;2022-11-15T09:48:13;29.00;;;12.97;;
6727;SDS011;3401;52.504;13.430;2022-11-15T09:51:13;29.27;;;14.67;;
6727;SDS011;3401;52.504;13.430;2022-11-15T09:53:51;26.20;;;12.77;;
6727;SDS011;3401;52.504;13.430;2022-11-15T09:56:44;27.30;;;12.77;;
6727;SDS011;3401;52.504;13.430;2022-11-15T09:59:16;25.20;;;13.27;;
6727;SDS011;3401;52.504;13.430;2022-11-15T10:01:59;19.23;;;10.60;;
6727;SDS011;3401;52.504;13.430;2022-11-15T10:04:32;23.00;;;11.40;;
6727;SDS011;3401;52.504;13.430;2022-11-15T10:07:02;25.93;;;12.17;;
6727;SDS011;3401;52.504;13.430;2022-11-15T10:09:38;19.67;;;10.83;;
6727;SDS011;3401;52.504;13.430;2022-11-15T10:12:10;25.07;;;12.57;;
6727;SDS011;3401;52.504;13.430;2022-11-15T10:14:40;25.73;;;12.50;;
6727;SDS011;3401;52.504;13.430;2022-11-15T10:20:06;22.57;;;10.97;;
6727;SDS011;3401;52.504;13.430;2022-11-15T10:22:41;22.67;;;10.63;;
6727;SDS011;3401;52.504;13.430;2022-11-15T10:25:16;26.30;;;12.23;;
6727;SDS011;3401;52.504;13.430;2022-11-15T10:27:53;26.43;;;11.50;;
6727;SDS011;3401;52.504;13.430;2022-11-15T10:30:22;23.90;;;11.53;;
6727;SDS011;3401;52.504;13.430;2022-11-15T10:32:51;23.57;;;13.00;;
6727;SDS011;3401;52.504;13.430;2022-11-15T10:35:20;27.67;;;13.90;;
6727;SDS011;3401;52.504;13.430;2022-11-15T10:37:51;20.83;;;12.00;;
6727;SDS011;3401;52.504;13.430;2022-11-15T10:40:20;23.20;;;11.47;;
6727;SDS011;3401;52.504;13.430;2022-11-15T10:43:03;25.90;;;12.50;;
6727;SDS011;3401;52.504;13.430;2022-11-15T10:45:33;20.33;;;11.50;;
6727;SDS011;3401;52.504;13.430;2022-11-15T10:48:18;22.00;;;11.30;;
6727;SDS011;3401;52.504;13.430;2022-11-15T10:50:49;24.53;;;10.80;;
6727;SDS011;3401;52.504;13.430;2022-11-15T10:53:20;17.90;;;10.10;;
6727;SDS011;3401;52.504;13.430;2022-11-15T10:55:51;25.17;;;11.47;;
6727;SDS011;3401;52.504;13.430;2022-11-15T10:58:22;22.13;;;11.27;;
6727;SDS011;3401;52.504;13.430;2022-11-15T11:01:08;19.60;;;10.63;;
6727;SDS011;3401;52.504;13.430;2022-11-15T11:03:38;21.10;;;10.50;;
6727;SDS011;3401;52.504;13.430;2022-11-15T11:06:07;20.80;;;11.20;;
6727;SDS011;3401;52.504;13.430;2022-11-15T11:08:38;22.60;;;10.57;;
6727;SDS011;3401;52.504;13.430;2022-11-15T11:11:09;23.80;;;11.20;;
6727;SDS011;3401;52.504;13.430;2022-11-15T11:13:37;18.37;;;10.37;;
6727;SDS011;3401;52.504;13.430;2022-11-15T11:16:15;19.87;;;11.50;;
6727;SDS011;3401;52.504;13.430;2022-11-15T11:18:49;17.53;;;9.80;;
6727;SDS011;3401;52.504;13.430;2022-11-15T11:21:25;17.23;;;9.83;;
6727;SDS011;3401;52.504;13.430;2022-11-15T11:24:08;21.33;;;10.83;;
6727;SDS011;3401;52.504;13.430;2022-11-15T11:26:48;22.80;;;10.73;;
6727;SDS011;3401;52.504;13.430;2022-11-15T11:29:29;17.20;;;9.87;;
6727;SDS011;3401;52.504;13.430;2022-11-15T11:32:07;17.00;;;10.07;;
6727;SDS011;3401;52.504;13.430;2022-11-15T11:34:45;17.93;;;9.63;;
6727;SDS011;3401;52.504;13.430;2022-11-15T11:37:20;18.90;;;10.10;;
6727;SDS011;3401;52.504;13.430;2022-11-15T11:39:56;18.77;;;9.50;;
6727;SDS011;3401;52.504;13.430;2022-11-15T11:42:38;18.50;;;9.77;;
6727;SDS011;3401;52.504;13.430;2022-11-15T11:45:14;17.90;;;9.60;;
6727;SDS011;3401;52.504;13.430;2022-11-15T11:47:46;18.43;;;9.40;;
6727;SDS011;3401;52.504;13.430;2022-11-15T11:50:15;20.13;;;9.53;;
6727;SDS011;3401;52.504;13.430;2022-11-15T11:52:54;12.33;;;7.50;;
6727;SDS011;3401;52.504;13.430;2022-11-15T11:55:31;16.60;;;9.27;;
6727;SDS011;3401;52.504;13.430;2022-11-15T11:58:03;11.90;;;7.97;;
6727;SDS011;3401;52.504;13.430;2022-11-15T12:00:35;13.40;;;8.13;;
6727;SDS011;3401;52.504;13.430;2022-11-15T12:03:08;12.33;;;7.93;;
6727;SDS011;3401;52.504;13.430;2022-11-15T12:05:40;12.40;;;8.17;;
6727;SDS011;3401;52.504;13.430;2022-11-15T12:08:16;14.27;;;9.20;;
6727;SDS011;3401;52.504;13.430;2022-11-15T12:10:52;14.80;;;9.47;;
6727;SDS011;3401;52.504;13.430;2022-11-15T12:13:23;16.17;;;7.40;;
6727;SDS011;3401;52.504;13.430;2022-11-15T12:15:55;13.67;;;7.93;;
6727;SDS011;3401;52.504;13.430;2022-11-15T12:18:35;14.17;;;7.70;;
6727;SDS011;3401;52.504;13.430;2022-11-15T12:21:04;18.80;;;8.10;;
6727;SDS011;3401;52.504;13.430;2022-11-15T12:23:37;10.27;;;6.70;;
6727;SDS011;3401;52.504;13.430;2022-11-15T12:26:09;18.10;;;7.60;;
6727;SDS011;3401;52.504;13.430;2022-11-15T12:28:43;11.23;;;7.33;;
6727;SDS011;3401;52.504;13.430;2022-11-15T12:31:35;12.23;;;7.17;;
6727;SDS011;3401;52.504;13.430;2022-11-15T12:34:12;10.03;;;7.07;;
6727;SDS011;3401;52.504;13.430;2022-11-15T12:36:43;10.70;;;7.10;;
6727;SDS011;3401;52.504;13.430;2022-11-15T12:39:12;10.97;;;7.13;;
6727;SDS011;3401;52.504;13.430;2022-11-15T12:41:42;12.80;;;7.97;;
6727;SDS011;3401;52.504;13.430;2022-11-15T12:44:11;14.57;;;8.60;;
6727;SDS011;3401;52.504;13.430;2022-11-15T12:49:43;14.30;;;8.47;;
6727;SDS011;3401;52.504;13.430;2022-11-15T12:52:13;17.47;;;8.87;;
6727;SDS011;3401;52.504;13.430;2022-11-15T12:54:54;12.07;;;7.80;;
6727;SDS011;3401;52.504;13.430;2022-11-15T12:57:34;12.90;;;7.60;;
6727;SDS011;3401;52.504;13.430;2022-11-15T13:03:18;10.63;;;8.10;;
6727;SDS011;3401;52.504;13.430;2022-11-15T13:05:56;13.23;;;7.73;;
6727;SDS011;3401;52.504;13.430;2022-11-15T13:17:27;16.10;;;8.90;;
6727;SDS011;3401;52.504;13.430;2022-11-15T13:22:45;25.10;;;14.27;;
6727;SDS011;3401;52.504;13.430;2022-11-15T13:25:47;18.07;;;9.60;;
6727;SDS011;3401;52.504;13.430;2022-11-15T13:28:22;17.23;;;11.50;;
6727;SDS011;3401;52.504;13.430;2022-11-15T13:30:59;16.47;;;10.60;;
6727;SDS011;3401;52.504;13.430;2022-11-15T13:33:30;19.07;;;10.73;;
6727;SDS011;3401;52.504;13.430;2022-11-15T13:36:03;18.90;;;9.70;;
6727;SDS011;3401;52.504;13.430;2022-11-15T13:38:33;20.43;;;9.23;;
6727;SDS011;3401;52.504;13.430;2022-11-15T13:41:10;16.90;;;9.57;;
6727;SDS011;3401;52.504;13.430;2022-11-15T13:43:41;16.03;;;10.30;;
6727;SDS011;3401;52.504;13.430;2022-11-15T13:46:12;19.57;;;10.37;;
6727;SDS011;3401;52.504;13.430;2022-11-15T13:48:41;14.23;;;9.30;;
6727;SDS011;3401;52.504;13.430;2022-11-15T13:51:14;13.97;;;8.47;;
6727;SDS011;3401;52.504;13.430;2022-11-15T13:53:51;13.13;;;8.90;;
6727;SDS011;3401;52.504;13.430;2022-11-15T13:56:22;18.50;;;9.60;;
6727;SDS011;3401;52.504;13.430;2022-11-15T13:58:50;19.97;;;8.97;;
6727;SDS011;3401;52.504;13.430;2022-11-15T14:01:20;15.47;;;9.80;;
6727;SDS011;3401;52.504;13.430;2022-11-15T14:03:50;18.73;;;9.37;;
6727;SDS011;3401;52.504;13.430;2022-11-15T14:06:21;16.30;;;8.57;;
6727;SDS011;3401;52.504;13.430;2022-11-15T14:12:00;17.40;;;9.57;;
6727;SDS011;3401;52.504;13.430;2022-11-15T14:14:29;15.23;;;8.07;;
6727;SDS011;3401;52.504;13.430;2022-11-15T14:16:59;11.20;;;7.63;;
6727;SDS011;3401;52.504;13.430;2022-11-15T14:19:38;14.10;;;8.47;;
6727;SDS011;3401;52.504;13.430;2022-11-15T14:22:07;16.80;;;9.20;;
6727;SDS011;3401;52.504;13.430;2022-11-15T14:24:37;16.33;;;9.60;;
6727;SDS011;3401;52.504;13.430;2022-11-15T14:27:24;15.07;;;9.87;;
6727;SDS011;3401;52.504;13.430;2022-11-15T14:29:53;23.90;;;11.83;;
6727;SDS011;3401;52.504;13.430;2022-11-15T14:32:23;270.20;;;112.60;;
6727;SDS011;3401;52.504;13.430;2022-11-15T14:34:54;24.63;;;10.63;;
6727;SDS011;3401;52.504;13.430;2022-11-15T14:37:23;22.70;;;10.20;;
6727;SDS011;3401;52.504;13.430;2022-11-15T14:39:52;15.97;;;9.70;;
6727;SDS011;3401;52.504;13.430;2022-11-15T14:42:21;16.40;;;9.13;;
6727;SDS011;3401;52.504;13.430;2022-11-15T14:44:50;16.60;;;9.00;;
6727;SDS011;3401;52.504;13.430;2022-11-15T14:47:18;16.10;;;8.33;;
6727;SDS011;3401;52.504;13.430;2022-11-15T14:49:47;16.47;;;8.70;;
6727;SDS011;3401;52.504;13.430;2022-11-15T14:52:26;13.57;;;8.37;;
6727;SDS011;3401;52.504;13.430;2022-11-15T14:54:58;16.50;;;9.20;;
6727;SDS011;3401;52.504;13.430;2022-11-15T14:57:27;15.50;;;9.20;;
6727;SDS011;3401;52.504;13.430;2022-11-15T14:59:55;17.30;;;9.97;;
6727;SDS011;3401;52.504;13.430;2022-11-15T15:02:37;20.20;;;10.07;;
6727;SDS011;3401;52.504;13.430;2022-11-15T15:05:13;16.40;;;9.33;;
6727;SDS011;3401;52.504;13.430;2022-11-15T15:07:42;21.07;;;8.60;;
6727;SDS011;3401;52.504;13.430;2022-11-15T15:10:11;19.10;;;10.37;;
6727;SDS011;3401;52.504;13.430;2022-11-15T15:12:59;15.30;;;8.67;;
6727;SDS011;3401;52.504;13.430;2022-11-15T15:15:31;25.33;;;12.80;;
6727;SDS011;3401;52.504;13.430;2022-11-15T15:18:00;31.93;;;16.10;;
6727;SDS011;3401;52.504;13.430;2022-11-15T15:20:32;24.50;;;13.67;;
6727;SDS011;3401;52.504;13.430;2022-11-15T15:23:00;23.87;;;11.67;;
6727;SDS011;3401;52.504;13.430;2022-11-15T15:25:29;16.40;;;10.03;;
6727;SDS011;3401;52.504;13.430;2022-11-15T15:27:58;20.27;;;9.30;;
6727;SDS011;3401;52.504;13.430;2022-11-15T15:30:28;15.50;;;9.07;;
6727;SDS011;3401;52.504;13.430;2022-11-15T15:32:56;21.37;;;11.00;;
6727;SDS011;3401;52.504;13.430;2022-11-15T15:35:25;22.17;;;9.13;;
6727;SDS011;3401;52.504;13.430;2022-11-15T15:37:58;21.27;;;9.50;;
6727;SDS011;3401;52.504;13.430;2022-11-15T15:40:27;17.93;;;9.23;;
6727;SDS011;3401;52.504;13.430;2022-11-15T15:42:56;26.43;;;10.00;;
6727;SDS011;3401;52.504;13.430;2022-11-15T15:45:24;18.50;;;9.57;;
6727;SDS011;3401;52.504;13.430;2022-11-15T15:47:53;20.10;;;10.70;;
6727;SDS011;3401;52.504;13.430;2022-11-15T15:50:21;20.30;;;9.77;;
6727;SDS011;3401;52.504;13.430;2022-11-15T15:52:52;21.80;;;10.73;;
6727;SDS011;3401;52.504;13.430;2022-11-15T15:55:21;22.53;;;10.80;;
6727;SDS011;3401;52.504;13.430;2022-11-15T15:57:49;17.63;;;9.67;;
6727;SDS011;3401;52.504;13.430;2022-11-15T16:00:18;19.17;;;11.33;;
6727;SDS011;3401;52.504;13.430;2022-11-15T16:02:47;20.93;;;9.40;;
6727;SDS011;3401;52.504;13.430;2022-11-15T16:05:15;18.60;;;10.33;;
6727;SDS011;3401;52.504;13.430;2022-11-15T16:07:43;20.97;;;10.70;;
6727;SDS011;3401;52.504;13.430;2022-11-15T16:10:19;22.33;;;11.37;;
6727;SDS011;3401;52.504;13.430;2022-11-15T16:12:49;22.50;;;10.83;;
6727;SDS011;3401;52.504;13.430;2022-11-15T16:15:17;23.90;;;11.70;;
6727;SDS011;3401;52.504;13.430;2022-11-15T16:17:47;24.20;;;10.87;;
6727;SDS011;3401;52.504;13.430;2022-11-15T16:23:07;27.57;;;12.83;;
6727;SDS011;3401;52.504;13.430;2022-11-15T16:25:40;29.50;;;12.20;;
6727;SDS011;3401;52.504;13.430;2022-11-15T16:28:13;22.30;;;11.77;;
6727;SDS011;3401;52.504;13.430;2022-11-15T16:30:44;28.90;;;13.30;;
6727;SDS011;3401;52.504;13.430;2022-11-15T16:33:17;33.03;;;11.90;;
6727;SDS011;3401;52.504;13.430;2022-11-15T16:35:46;19.00;;;10.07;;
6727;SDS011;3401;52.504;13.430;2022-11-15T16:38:14;25.10;;;11.60;;